Time,TemperatureF,DewpointF,PressureIn,WindDirection,WindDirectionDegrees,WindSpeedMPH,WindSpeedGustMPH,Humidity,HourlyPrecipIn,Conditions,Clouds,dailyrainin,SolarRadiationWatts/m^2,SoftwareType,DateUTC
2013-05-31 00:11:00,59.0,57.0,-100.00,SSE,164,3.0,5.0,93,0.00,,,0.00,0.000000,,2013-05-31 07:11:00,
2013-05-31 00:21:00,59.0,57.0,-100.00,SSE,164,3.0,5.0,93,0.00,,,0.00,0.000000,,2013-05-31 07:21:00,
2013-05-31 00:32:00,59.0,57.0,-100.00,SSE,164,3.0,5.0,93,0.00,,,0.00,0.000000,,2013-05-31 07:32:00,
2013-05-31 00:41:00,59.0,57.0,-100.00,SSE,164,3.0,5.0,93,0.00,,,0.00,0.000000,,2013-05-31 07:41:00,
2013-05-31 00:51:00,60.0,57.0,-100.00,South,184,5.0,7.0,91,0.00,,,0.00,0.000000,,2013-05-31 07:51:00,
2013-05-31 01:11:00,60.0,57.0,-100.00,South,184,5.0,7.0,91,0.00,,,0.00,0.000000,,2013-05-31 08:11:00,
2013-05-31 01:21:00,60.0,57.0,-100.00,South,184,5.0,7.0,91,0.00,,,0.00,0.000000,,2013-05-31 08:21:00,
2013-05-31 01:31:00,60.0,57.0,-100.00,South,184,5.0,7.0,91,0.00,,,0.00,0.000000,,2013-05-31 08:31:00,
2013-05-31 01:42:00,60.0,57.0,-100.00,South,184,5.0,7.0,91,0.00,,,0.00,0.000000,,2013-05-31 08:42:00,
2013-05-31 01:51:00,59.0,56.0,-100.00,SSE,163,6.0,11.0,91,0.00,,,0.00,0.000000,,2013-05-31 08:51:00,
2013-05-31 02:11:00,59.0,56.0,-100.00,SSE,163,6.0,11.0,91,0.00,,,0.00,0.000000,,2013-05-31 09:11:00,
2013-05-31 02:21:00,59.0,56.0,-100.00,SSE,163,6.0,11.0,91,0.00,,,0.00,0.000000,,2013-05-31 09:21:00,
2013-05-31 02:32:00,59.0,56.0,-100.00,SSE,163,6.0,11.0,91,0.00,,,0.00,0.000000,,2013-05-31 09:32:00,
2013-05-31 02:43:00,59.0,56.0,-100.00,SSE,163,6.0,11.0,91,0.00,,,0.00,0.000000,,2013-05-31 09:43:00,
2013-05-31 02:51:00,59.0,57.0,-100.00,South,174,4.0,9.0,93,0.00,,,0.00,0.000000,,2013-05-31 09:51:00,
2013-05-31 03:12:00,59.0,57.0,-100.00,South,174,4.0,9.0,93,0.00,,,0.00,0.000000,,2013-05-31 10:12:00,
2013-05-31 03:22:00,59.0,57.0,-100.00,South,174,4.0,9.0,93,0.00,,,0.00,0.000000,,2013-05-31 10:22:00,
2013-05-31 03:32:00,59.0,57.0,-100.00,South,174,4.0,9.0,93,0.00,,,0.00,0.000000,,2013-05-31 10:32:00,
2013-05-31 03:42:00,59.0,57.0,-100.00,South,174,4.0,9.0,93,0.00,,,0.00,0.000000,,2013-05-31 10:42:00,
2013-05-31 03:51:00,59.0,57.0,-100.00,East,87,2.0,6.0,93,0.00,,,0.00,0.000000,,2013-05-31 10:51:00,
2013-05-31 04:11:00,59.0,57.0,-100.00,East,87,2.0,6.0,93,0.00,,,0.00,0.000000,,2013-05-31 11:11:00,
2013-05-31 04:22:00,59.0,57.0,-100.00,East,87,2.0,6.0,93,0.00,,,0.00,0.000000,,2013-05-31 11:22:00,
2013-05-31 04:32:00,59.0,57.0,-100.00,East,87,2.0,6.0,93,0.00,,,0.00,0.000000,,2013-05-31 11:32:00,
2013-05-31 04:42:00,59.0,57.0,-100.00,East,87,2.0,6.0,93,0.00,,,0.00,0.000000,,2013-05-31 11:42:00,
2013-05-31 04:51:00,59.0,57.0,-100.00,ESE,105,3.0,5.0,92,0.00,,,0.00,0.000000,,2013-05-31 11:51:00,
2013-05-31 05:11:00,59.0,57.0,-100.00,ESE,105,3.0,5.0,92,0.00,,,0.00,0.000000,,2013-05-31 12:11:00,
2013-05-31 05:21:00,59.0,57.0,-100.00,ESE,105,3.0,5.0,92,0.00,,,0.00,0.000000,,2013-05-31 12:21:00,
2013-05-31 05:31:00,59.0,57.0,-100.00,ESE,105,3.0,5.0,92,0.00,,,0.00,0.000000,,2013-05-31 12:31:00,
2013-05-31 05:41:00,59.0,57.0,-100.00,ESE,105,3.0,5.0,92,0.00,,,0.00,0.000000,,2013-05-31 12:41:00,
2013-05-31 05:51:00,59.0,56.0,-100.00,ENE,58,0.0,5.0,91,0.00,,,0.00,0.000000,,2013-05-31 12:51:00,
2013-05-31 06:11:00,59.0,56.0,-100.00,ENE,58,0.0,5.0,91,0.00,,,0.00,0.000000,,2013-05-31 13:11:00,
2013-05-31 06:21:00,59.0,56.0,-100.00,ENE,58,0.0,5.0,91,0.00,,,0.00,0.000000,,2013-05-31 13:21:00,
2013-05-31 06:32:00,59.0,56.0,-100.00,ENE,58,0.0,5.0,91,0.00,,,0.00,0.000000,,2013-05-31 13:32:00,
2013-05-31 06:42:00,59.0,56.0,-100.00,ENE,58,0.0,5.0,91,0.00,,,0.00,0.000000,,2013-05-31 13:42:00,
2013-05-31 06:51:00,59.0,56.0,-100.00,ENE,77,4.0,5.0,90,0.00,,,0.00,13.000000,,2013-05-31 13:51:00,
2013-05-31 07:11:00,59.0,56.0,-100.00,ENE,77,4.0,5.0,90,0.00,,,0.00,13.000000,,2013-05-31 14:11:00,
2013-05-31 07:21:00,59.0,56.0,-100.00,ENE,77,4.0,5.0,90,0.00,,,0.00,13.000000,,2013-05-31 14:21:00,
2013-05-31 07:32:00,59.0,56.0,-100.00,ENE,77,4.0,5.0,90,0.00,,,0.00,13.000000,,2013-05-31 14:32:00,
2013-05-31 07:41:00,59.0,56.0,-100.00,ENE,77,4.0,5.0,90,0.00,,,0.00,13.000000,,2013-05-31 14:41:00,
2013-05-31 07:51:00,60.0,56.0,-100.00,ENE,70,3.0,5.0,86,0.00,,,0.00,60.000000,,2013-05-31 14:51:00,
2013-05-31 08:11:00,60.0,56.0,-100.00,ENE,70,3.0,5.0,86,0.00,,,0.00,60.000000,,2013-05-31 15:11:00,
2013-05-31 08:21:00,60.0,56.0,-100.00,ENE,70,3.0,5.0,86,0.00,,,0.00,60.000000,,2013-05-31 15:21:00,
2013-05-31 08:33:00,60.0,56.0,-100.00,ENE,70,3.0,5.0,86,0.00,,,0.00,60.000000,,2013-05-31 15:33:00,
2013-05-31 08:43:00,60.0,56.0,-100.00,ENE,70,3.0,5.0,86,0.00,,,0.00,60.000000,,2013-05-31 15:43:00,
2013-05-31 08:51:00,62.0,56.0,-100.00,NW,316,4.0,8.0,82,0.00,,,0.00,135.000000,,2013-05-31 15:51:00,
2013-05-31 09:12:00,62.0,56.0,-100.00,NW,316,4.0,8.0,82,0.00,,,0.00,135.000000,,2013-05-31 16:12:00,
2013-05-31 09:22:00,62.0,56.0,-100.00,NW,316,4.0,8.0,82,0.00,,,0.00,135.000000,,2013-05-31 16:22:00,
2013-05-31 09:33:00,62.0,56.0,-100.00,NW,316,4.0,8.0,82,0.00,,,0.00,135.000000,,2013-05-31 16:33:00,
2013-05-31 09:42:00,62.0,56.0,-100.00,NW,316,4.0,8.0,82,0.00,,,0.00,135.000000,,2013-05-31 16:42:00,
2013-05-31 09:51:00,67.0,58.0,-100.00,WNW,288,4.0,10.0,73,0.00,,,0.00,374.000000,,2013-05-31 16:51:00,
2013-05-31 10:12:00,67.0,58.0,-100.00,WNW,288,4.0,10.0,73,0.00,,,0.00,374.000000,,2013-05-31 17:12:00,
2013-05-31 10:22:00,67.0,58.0,-100.00,WNW,288,4.0,10.0,73,0.00,,,0.00,374.000000,,2013-05-31 17:22:00,
2013-05-31 10:32:00,67.0,58.0,-100.00,WNW,288,4.0,10.0,73,0.00,,,0.00,374.000000,,2013-05-31 17:32:00,
2013-05-31 10:42:00,67.0,58.0,-100.00,WNW,288,4.0,10.0,73,0.00,,,0.00,374.000000,,2013-05-31 17:42:00,
2013-05-31 10:51:00,71.0,58.0,-100.00,WNW,287,8.0,15.0,63,0.00,,,0.00,787.000000,,2013-05-31 17:51:00,
2013-05-31 11:11:00,71.0,58.0,-100.00,WNW,287,8.0,15.0,63,0.00,,,0.00,787.000000,,2013-05-31 18:11:00,
2013-05-31 11:22:00,71.0,58.0,-100.00,WNW,287,8.0,15.0,63,0.00,,,0.00,787.000000,,2013-05-31 18:22:00,
2013-05-31 11:31:00,71.0,58.0,-100.00,WNW,287,8.0,15.0,63,0.00,,,0.00,787.000000,,2013-05-31 18:31:00,
2013-05-31 11:41:00,71.0,58.0,-100.00,WNW,287,8.0,15.0,63,0.00,,,0.00,787.000000,,2013-05-31 18:41:00,
2013-05-31 11:51:00,76.0,58.0,-100.00,WNW,299,7.0,15.0,53,0.00,,,0.00,891.000000,,2013-05-31 18:51:00,
2013-05-31 12:11:00,76.0,58.0,-100.00,WNW,299,7.0,15.0,53,0.00,,,0.00,891.000000,,2013-05-31 19:11:00,
2013-05-31 12:22:00,76.0,58.0,-100.00,WNW,299,7.0,15.0,53,0.00,,,0.00,891.000000,,2013-05-31 19:22:00,
2013-05-31 12:31:00,76.0,58.0,-100.00,WNW,299,7.0,15.0,53,0.00,,,0.00,891.000000,,2013-05-31 19:31:00,
2013-05-31 12:42:00,76.0,58.0,-100.00,WNW,299,7.0,15.0,53,0.00,,,0.00,891.000000,,2013-05-31 19:42:00,
2013-05-31 12:51:00,75.0,58.0,-100.00,WSW,250,14.0,19.0,55,0.00,,,0.00,948.000000,,2013-05-31 19:51:00,
2013-05-31 13:11:00,75.0,58.0,-100.00,WSW,250,14.0,19.0,55,0.00,,,0.00,948.000000,,2013-05-31 20:11:00,
2013-05-31 13:22:00,75.0,58.0,-100.00,WSW,250,14.0,19.0,55,0.00,,,0.00,948.000000,,2013-05-31 20:22:00,
2013-05-31 13:31:00,75.0,58.0,-100.00,WSW,250,14.0,19.0,55,0.00,,,0.00,948.000000,,2013-05-31 20:31:00,
2013-05-31 13:41:00,75.0,58.0,-100.00,WSW,250,14.0,19.0,55,0.00,,,0.00,948.000000,,2013-05-31 20:41:00,
2013-05-31 13:51:00,76.0,58.0,-100.00,WSW,247,13.0,18.0,54,0.00,,,0.00,946.000000,,2013-05-31 20:51:00,
2013-05-31 14:11:00,76.0,58.0,-100.00,WSW,247,13.0,18.0,54,0.00,,,0.00,946.000000,,2013-05-31 21:11:00,
2013-05-31 14:22:00,76.0,58.0,-100.00,WSW,247,13.0,18.0,54,0.00,,,0.00,946.000000,,2013-05-31 21:22:00,
2013-05-31 14:32:00,76.0,58.0,-100.00,WSW,247,13.0,18.0,54,0.00,,,0.00,946.000000,,2013-05-31 21:32:00,
2013-05-31 14:42:00,76.0,58.0,-100.00,WSW,247,13.0,18.0,54,0.00,,,0.00,946.000000,,2013-05-31 21:42:00,
2013-05-31 14:51:00,78.0,59.0,-100.00,WSW,254,12.0,17.0,52,0.00,,,0.00,898.000000,,2013-05-31 21:51:00,
2013-05-31 15:12:00,78.0,59.0,-100.00,WSW,254,12.0,17.0,52,0.00,,,0.00,898.000000,,2013-05-31 22:12:00,
2013-05-31 15:22:00,78.0,59.0,-100.00,WSW,254,12.0,17.0,52,0.00,,,0.00,898.000000,,2013-05-31 22:22:00,
2013-05-31 15:33:00,78.0,59.0,-100.00,WSW,254,12.0,17.0,52,0.00,,,0.00,898.000000,,2013-05-31 22:33:00,
2013-05-31 15:41:00,78.0,59.0,-100.00,WSW,254,12.0,17.0,52,0.00,,,0.00,898.000000,,2013-05-31 22:41:00,
2013-05-31 15:51:00,75.0,58.0,-100.00,WSW,248,14.0,19.0,56,0.00,,,0.00,790.000000,,2013-05-31 22:51:00,
2013-05-31 16:12:00,75.0,58.0,-100.00,WSW,248,14.0,19.0,56,0.00,,,0.00,790.000000,,2013-05-31 23:12:00,
2013-05-31 16:21:00,75.0,58.0,-100.00,WSW,248,14.0,19.0,56,0.00,,,0.00,790.000000,,2013-05-31 23:21:00,
2013-05-31 16:32:00,75.0,58.0,-100.00,WSW,248,14.0,19.0,56,0.00,,,0.00,790.000000,,2013-05-31 23:32:00,
2013-05-31 16:42:00,75.0,58.0,-100.00,WSW,248,14.0,19.0,56,0.00,,,0.00,790.000000,,2013-05-31 23:42:00,
2013-05-31 16:51:00,76.0,59.0,-100.00,WSW,257,10.0,17.0,55,0.00,,,0.00,635.000000,,2013-05-31 23:51:00,
2013-05-31 17:11:00,76.0,59.0,-100.00,WSW,257,10.0,17.0,55,0.00,,,0.00,635.000000,,2013-06-01 00:11:00,
2013-05-31 17:22:00,76.0,59.0,-100.00,WSW,257,10.0,17.0,55,0.00,,,0.00,635.000000,,2013-06-01 00:22:00,
2013-05-31 17:31:00,76.0,59.0,-100.00,WSW,257,10.0,17.0,55,0.00,,,0.00,635.000000,,2013-06-01 00:31:00,
2013-05-31 17:42:00,76.0,59.0,-100.00,WSW,257,10.0,17.0,55,0.00,,,0.00,635.000000,,2013-06-01 00:42:00,
2013-05-31 17:51:00,71.0,59.0,-100.00,WSW,249,14.0,17.0,65,0.00,,,0.00,435.000000,,2013-06-01 00:51:00,
2013-05-31 18:11:00,71.0,59.0,-100.00,WSW,249,14.0,17.0,65,0.00,,,0.00,435.000000,,2013-06-01 01:11:00,
2013-05-31 18:21:00,71.0,59.0,-100.00,WSW,249,14.0,17.0,65,0.00,,,0.00,435.000000,,2013-06-01 01:21:00,
2013-05-31 18:32:00,71.0,59.0,-100.00,WSW,249,14.0,17.0,65,0.00,,,0.00,435.000000,,2013-06-01 01:32:00,
2013-05-31 18:42:00,71.0,59.0,-100.00,WSW,249,14.0,17.0,65,0.00,,,0.00,435.000000,,2013-06-01 01:42:00,
2013-05-31 18:51:00,68.0,59.0,-100.00,West,259,9.0,17.0,72,0.00,,,0.00,233.000000,,2013-06-01 01:51:00,
2013-05-31 19:11:00,68.0,59.0,-100.00,West,259,9.0,17.0,72,0.00,,,0.00,233.000000,,2013-06-01 02:11:00,
2013-05-31 19:21:00,68.0,59.0,-100.00,West,259,9.0,17.0,72,0.00,,,0.00,233.000000,,2013-06-01 02:21:00,
2013-05-31 19:32:00,68.0,59.0,-100.00,West,259,9.0,17.0,72,0.00,,,0.00,233.000000,,2013-06-01 02:32:00,
2013-05-31 19:42:00,68.0,59.0,-100.00,West,259,9.0,17.0,72,0.00,,,0.00,233.000000,,2013-06-01 02:42:00,
2013-05-31 19:51:00,63.0,58.0,-100.00,WSW,243,7.0,13.0,83,0.00,,,0.00,67.000000,,2013-06-01 02:51:00,
2013-05-31 20:11:00,63.0,58.0,-100.00,WSW,243,7.0,13.0,83,0.00,,,0.00,67.000000,,2013-06-01 03:11:00,
2013-05-31 20:21:00,63.0,58.0,-100.00,WSW,243,7.0,13.0,83,0.00,,,0.00,67.000000,,2013-06-01 03:21:00,
2013-05-31 20:33:00,63.0,58.0,-100.00,WSW,243,7.0,13.0,83,0.00,,,0.00,67.000000,,2013-06-01 03:33:00,
2013-05-31 20:43:00,63.0,58.0,-100.00,WSW,243,7.0,13.0,83,0.00,,,0.00,67.000000,,2013-06-01 03:43:00,
2013-05-31 20:51:00,61.0,58.0,-100.00,South,185,3.0,9.0,89,0.00,,,0.00,1.000000,,2013-06-01 03:51:00,
2013-05-31 21:12:00,61.0,58.0,-100.00,South,185,3.0,9.0,89,0.00,,,0.00,1.000000,,2013-06-01 04:12:00,
2013-05-31 21:23:00,61.0,58.0,-100.00,South,185,3.0,9.0,89,0.00,,,0.00,1.000000,,2013-06-01 04:23:00,
2013-05-31 21:33:00,61.0,58.0,-100.00,South,185,3.0,9.0,89,0.00,,,0.00,1.000000,,2013-06-01 04:33:00,
2013-05-31 21:42:00,61.0,58.0,-100.00,South,185,3.0,9.0,89,0.00,,,0.00,1.000000,,2013-06-01 04:42:00,
2013-05-31 21:51:00,60.0,58.0,-100.00,ESE,121,2.0,5.0,93,0.00,,,0.00,0.000000,,2013-06-01 04:51:00,
2013-05-31 22:12:00,60.0,58.0,-100.00,ESE,121,2.0,5.0,93,0.00,,,0.00,0.000000,,2013-06-01 05:12:00,
2013-05-31 22:22:00,60.0,58.0,-100.00,ESE,121,2.0,5.0,93,0.00,,,0.00,0.000000,,2013-06-01 05:22:00,
2013-05-31 22:32:00,60.0,58.0,-100.00,ESE,121,2.0,5.0,93,0.00,,,0.00,0.000000,,2013-06-01 05:32:00,
2013-05-31 22:42:00,60.0,58.0,-100.00,ESE,121,2.0,5.0,93,0.00,,,0.00,0.000000,,2013-06-01 05:42:00,
2013-05-31 22:51:00,59.0,58.0,-100.00,SE,130,1.0,7.0,95,0.00,,,0.00,0.000000,,2013-06-01 05:51:00,
2013-05-31 23:12:00,59.0,58.0,-100.00,SE,130,1.0,7.0,95,0.00,,,0.00,0.000000,,2013-06-01 06:12:00,
2013-05-31 23:22:00,59.0,58.0,-100.00,SE,130,1.0,7.0,95,0.00,,,0.00,0.000000,,2013-06-01 06:22:00,
2013-05-31 23:32:00,59.0,58.0,-100.00,SE,130,1.0,7.0,95,0.00,,,0.00,0.000000,,2013-06-01 06:32:00,
2013-05-31 23:42:00,59.0,58.0,-100.00,SE,130,1.0,7.0,95,0.00,,,0.00,0.000000,,2013-06-01 06:42:00,
2013-05-31 23:51:00,59.0,58.0,-100.00,SE,128,2.0,6.0,95,0.00,,,0.00,0.000000,,2013-06-01 06:51:00,